createdAt,value
2022-10-07T00:00:55.843Z,19.25
2022-10-07T00:03:24.554Z,28.55
2022-10-07T00:06:00.723Z,21.77
2022-10-07T00:08:27.772Z,23.02
2022-10-07T00:10:54.878Z,17.60
2022-10-07T00:13:22.070Z,23.02
2022-10-07T00:15:48.847Z,16.33
2022-10-07T00:18:15.700Z,28.20
2022-10-07T00:20:42.542Z,20.23
2022-10-07T00:23:09.426Z,18.33
2022-10-07T00:25:40.028Z,20.15
2022-10-07T00:28:07.174Z,22.30
2022-10-07T00:30:34.113Z,22.55
2022-10-07T00:33:00.995Z,21.98
2022-10-07T00:35:27.938Z,21.17
2022-10-07T00:37:54.997Z,22.55
2022-10-07T00:40:21.826Z,25.35
2022-10-07T00:42:48.704Z,23.60
2022-10-07T00:45:17.297Z,18.08
2022-10-07T00:47:46.815Z,19.52
2022-10-07T00:50:16.777Z,19.33
2022-10-07T00:52:53.098Z,25.60
2022-10-07T00:55:25.229Z,24.95
2022-10-07T00:57:55.196Z,20.67
2022-10-07T01:00:24.165Z,24.42
2022-10-07T01:02:51.734Z,23.30
2022-10-07T01:05:19.892Z,17.08
2022-10-07T01:07:48.771Z,14.80
2022-10-07T01:10:20.305Z,22.00
2022-10-07T01:13:19.331Z,20.65
2022-10-07T01:15:49.018Z,23.42
2022-10-07T01:18:28.484Z,21.23
2022-10-07T01:21:40.279Z,19.73
2022-10-07T01:24:36.887Z,17.33
2022-10-07T01:27:15.426Z,23.40
2022-10-07T01:29:57.104Z,20.20
2022-10-07T01:32:41.850Z,17.85
2022-10-07T01:35:16.826Z,20.35
2022-10-07T01:37:48.987Z,22.83
2022-10-07T01:40:21.753Z,16.60
2022-10-07T01:42:49.877Z,21.58
2022-10-07T01:45:21.701Z,20.55
2022-10-07T01:47:49.552Z,19.60
2022-10-07T01:50:20.594Z,18.80
2022-10-07T01:53:20.340Z,24.90
2022-10-07T01:56:14.742Z,17.50
2022-10-07T01:58:42.631Z,23.02
2022-10-07T02:01:32.738Z,16.13
2022-10-07T02:04:25.610Z,18.15
2022-10-07T02:07:18.092Z,21.50
2022-10-07T02:10:15.939Z,18.52
2022-10-07T02:12:59.383Z,20.17
2022-10-07T02:15:43.076Z,24.25
2022-10-07T02:18:16.275Z,17.60
2022-10-07T02:20:49.189Z,27.48
2022-10-07T02:23:19.040Z,20.60
2022-10-07T02:25:49.470Z,15.75
2022-10-07T02:28:20.305Z,21.60
2022-10-07T02:30:53.627Z,18.60
2022-10-07T02:33:24.703Z,16.08
2022-10-07T02:35:54.871Z,14.32
2022-10-07T02:38:22.530Z,23.50
2022-10-07T02:41:06.241Z,14.43
2022-10-07T02:43:57.949Z,25.80
2022-10-07T02:46:31.678Z,15.38
2022-10-07T02:49:02.736Z,16.77
2022-10-07T02:51:37.074Z,13.93
2022-10-07T02:54:04.972Z,19.40
2022-10-07T02:56:36.224Z,26.50
2022-10-07T02:59:06.970Z,19.25
2022-10-07T03:01:39.252Z,19.08
2022-10-07T03:04:06.467Z,18.83
2022-10-07T03:06:35.695Z,19.05
2022-10-07T03:09:03.878Z,18.15
2022-10-07T03:11:31.129Z,16.30
2022-10-07T03:13:58.720Z,15.15
2022-10-07T03:16:26.340Z,20.75
2022-10-07T03:18:54.294Z,17.42
2022-10-07T03:21:33.951Z,17.02
2022-10-07T03:24:05.299Z,20.17
2022-10-07T03:26:38.311Z,22.07
2022-10-07T03:29:05.678Z,17.80
2022-10-07T03:31:32.646Z,20.13
2022-10-07T03:34:01.137Z,21.45
2022-10-07T03:36:28.342Z,26.15
2022-10-07T03:38:55.673Z,22.52
2022-10-07T03:41:24.294Z,18.83
2022-10-07T03:43:57.453Z,17.10
2022-10-07T03:46:25.666Z,22.38
2022-10-07T03:48:52.977Z,26.70
2022-10-07T03:51:20.382Z,23.95
2022-10-07T03:53:48.049Z,21.88
2022-10-07T03:56:15.178Z,17.25
2022-10-07T03:58:43.711Z,21.48
2022-10-07T04:01:16.299Z,20.20
2022-10-07T04:03:57.245Z,14.50
2022-10-07T04:06:25.029Z,16.65
2022-10-07T04:08:55.365Z,20.70
2022-10-07T04:11:24.268Z,18.50
2022-10-07T04:13:53.881Z,16.52
2022-10-07T04:16:23.123Z,29.73
2022-10-07T04:18:53.951Z,17.95
2022-10-07T04:21:22.549Z,17.13
2022-10-07T04:23:49.411Z,18.88
2022-10-07T04:26:16.894Z,19.88
2022-10-07T04:29:14.857Z,17.85
2022-10-07T04:31:41.887Z,24.55
2022-10-07T04:34:08.997Z,15.60
2022-10-07T04:36:39.803Z,12.27
2022-10-07T04:39:09.514Z,19.80
2022-10-07T04:41:41.003Z,22.20
2022-10-07T04:44:13.728Z,16.90
2022-10-07T04:46:48.961Z,19.83
2022-10-07T04:49:17.691Z,22.38
2022-10-07T04:51:44.560Z,16.05
2022-10-07T04:54:11.454Z,24.50
2022-10-07T04:59:23.748Z,18.75
2022-10-07T05:01:52.384Z,22.42
2022-10-07T05:04:19.812Z,22.08
2022-10-07T05:06:47.070Z,12.27
2022-10-07T05:09:14.887Z,17.17
2022-10-07T05:11:44.275Z,16.33
2022-10-07T05:14:21.338Z,16.40
2022-10-07T05:16:50.361Z,18.40
2022-10-07T05:19:17.860Z,22.27
2022-10-07T05:21:45.900Z,15.80
2022-10-07T05:24:13.803Z,22.40
2022-10-07T05:26:40.862Z,21.67
2022-10-07T05:29:09.647Z,20.67
2022-10-07T05:31:42.246Z,18.80
2022-10-07T05:34:10.334Z,18.23
2022-10-07T05:36:38.754Z,17.77
2022-10-07T05:39:07.057Z,21.90
2022-10-07T05:41:45.888Z,22.88
2022-10-07T05:44:16.221Z,17.27
2022-10-07T05:46:43.501Z,16.48
2022-10-07T05:49:12.229Z,23.00
2022-10-07T05:51:40.994Z,18.42
2022-10-07T05:54:08.499Z,18.05
2022-10-07T05:56:39.632Z,18.33
2022-10-07T05:59:06.689Z,18.08
2022-10-07T06:01:34.338Z,22.30
2022-10-07T06:04:08.124Z,22.80
2022-10-07T06:06:38.702Z,22.10
2022-10-07T06:09:27.562Z,24.73
2022-10-07T06:12:14.229Z,19.52
2022-10-07T06:17:09.657Z,24.60
2022-10-07T06:19:38.340Z,18.05
2022-10-07T06:22:05.660Z,21.08
2022-10-07T06:24:35.212Z,22.80
2022-10-07T06:27:02.913Z,19.10
2022-10-07T06:29:30.536Z,22.00
2022-10-07T06:31:57.889Z,25.95
2022-10-07T06:34:24.863Z,19.75
2022-10-07T06:36:53.094Z,17.63
2022-10-07T06:39:20.081Z,25.02
2022-10-07T06:41:47.680Z,18.90
2022-10-07T06:44:33.082Z,18.83
2022-10-07T06:47:01.539Z,22.88
2022-10-07T06:49:28.485Z,17.58
2022-10-07T06:51:55.335Z,19.50
2022-10-07T06:54:22.302Z,19.88
2022-10-07T06:56:49.341Z,18.33
2022-10-07T06:59:16.689Z,19.35
2022-10-07T07:01:52.472Z,23.15
2022-10-07T07:04:19.451Z,23.15
2022-10-07T07:06:46.768Z,13.05
2022-10-07T07:09:14.570Z,21.30
2022-10-07T07:11:45.178Z,21.63
2022-10-07T07:14:19.244Z,21.63
2022-10-07T07:16:53.417Z,19.25
2022-10-07T07:19:22.329Z,14.65
2022-10-07T07:21:51.275Z,17.65
2022-10-07T07:24:20.965Z,15.85
2022-10-07T07:26:48.559Z,22.48
2022-10-07T07:29:16.630Z,19.08
2022-10-07T07:31:57.375Z,20.77
2022-10-07T07:34:26.533Z,17.00
2022-10-07T07:36:53.494Z,18.05
2022-10-07T07:39:24.170Z,17.70
2022-10-07T07:41:57.722Z,19.55
2022-10-07T07:44:25.591Z,23.90
2022-10-07T07:46:55.817Z,11.60
2022-10-07T07:49:24.572Z,13.20
2022-10-07T07:51:52.177Z,17.83
2022-10-07T07:54:29.416Z,18.42
2022-10-07T07:56:58.047Z,15.25
2022-10-07T07:59:27.957Z,17.45
2022-10-07T08:01:57.471Z,20.02
2022-10-07T08:04:24.996Z,16.23
2022-10-07T08:06:52.227Z,12.68
2022-10-07T08:09:19.910Z,17.38
2022-10-07T08:11:48.684Z,16.50
2022-10-07T08:14:17.534Z,19.30
2022-10-07T08:16:47.409Z,18.60
2022-10-07T08:19:15.336Z,15.95
2022-10-07T08:21:42.467Z,19.20
2022-10-07T08:24:14.790Z,16.90
2022-10-07T08:26:41.677Z,14.50
2022-10-07T08:29:13.708Z,13.93
2022-10-07T08:31:42.646Z,13.45
2022-10-07T08:34:10.477Z,19.10
2022-10-07T08:36:37.547Z,17.17
2022-10-07T08:39:05.407Z,16.20
2022-10-07T08:41:36.181Z,19.30
2022-10-07T08:44:18.130Z,22.45
2022-10-07T08:46:57.628Z,23.08
2022-10-07T08:49:37.164Z,16.02
2022-10-07T08:52:17.469Z,16.80
2022-10-07T08:54:44.326Z,18.42
2022-10-07T08:57:43.647Z,18.25
2022-10-07T09:00:15.302Z,18.33
2022-10-07T09:03:26.811Z,17.27
2022-10-07T09:05:55.813Z,16.02
2022-10-07T09:08:28.711Z,15.27
2022-10-07T09:11:02.456Z,14.40
2022-10-07T09:13:36.018Z,18.88
2022-10-07T09:16:22.996Z,16.45
2022-10-07T09:18:56.195Z,13.15
2022-10-07T09:21:54.899Z,17.33
2022-10-07T09:24:26.112Z,13.85
2022-10-07T09:26:56.697Z,15.43
2022-10-07T09:29:26.592Z,12.93
2022-10-07T09:32:42.361Z,15.80
2022-10-07T09:35:23.522Z,14.63
2022-10-07T09:38:08.322Z,16.60
2022-10-07T09:40:36.807Z,16.48
2022-10-07T09:43:14.146Z,14.55
2022-10-07T09:45:46.273Z,18.83
2022-10-07T09:48:21.810Z,15.50
2022-10-07T09:53:25.716Z,11.25
2022-10-07T09:55:54.544Z,14.23
2022-10-07T09:58:25.031Z,13.20
2022-10-07T10:01:00.295Z,14.32
2022-10-07T10:03:36.288Z,17.63
2022-10-07T10:06:12.221Z,15.82
2022-10-07T10:08:43.197Z,14.48
2022-10-07T10:11:19.300Z,12.43
2022-10-07T10:13:49.302Z,10.43
2022-10-07T10:16:25.454Z,13.60
2022-10-07T10:19:02.401Z,12.90
2022-10-07T10:21:35.927Z,18.00
2022-10-07T10:24:06.299Z,10.43
2022-10-07T10:27:01.551Z,12.63
2022-10-07T10:29:46.543Z,15.95
2022-10-07T10:32:13.409Z,11.02
2022-10-07T10:35:01.703Z,13.15
2022-10-07T10:37:40.816Z,8.85
2022-10-07T10:40:32.376Z,15.38
2022-10-07T10:43:16.589Z,14.35
2022-10-07T10:46:28.412Z,11.15
2022-10-07T10:49:27.357Z,15.38
2022-10-07T10:52:18.021Z,13.10
2022-10-07T10:55:03.662Z,11.32
2022-10-07T10:57:33.288Z,11.65
2022-10-07T11:00:13.125Z,14.27
2022-10-07T11:02:43.125Z,8.98
2022-10-07T11:05:30.711Z,11.50
2022-10-07T11:08:27.228Z,14.80
2022-10-07T11:11:18.869Z,11.38
2022-10-07T11:13:55.746Z,16.23
2022-10-07T11:16:40.774Z,10.77
2022-10-07T11:19:18.106Z,16.07
2022-10-07T11:21:48.455Z,18.73
2022-10-07T11:24:40.700Z,13.27
2022-10-07T11:27:23.234Z,13.98
2022-10-07T11:29:59.008Z,9.77
2022-10-07T11:32:58.702Z,18.13
2022-10-07T11:35:31.405Z,9.65
2022-10-07T11:38:10.558Z,10.38
2022-10-07T11:40:57.900Z,12.85
2022-10-07T11:43:46.298Z,13.15
2022-10-07T11:46:18.671Z,14.48
2022-10-07T11:48:49.232Z,11.68
2022-10-07T11:51:32.655Z,16.67
2022-10-07T11:54:03.185Z,11.85
2022-10-07T11:56:45.484Z,10.68
2022-10-07T11:59:31.777Z,16.83
2022-10-07T12:01:58.772Z,10.45
2022-10-07T12:04:35.349Z,11.20
2022-10-07T12:07:55.411Z,16.45
2022-10-07T12:10:28.809Z,12.13
2022-10-07T12:13:02.258Z,12.13
2022-10-07T12:15:42.301Z,10.65
2022-10-07T12:18:13.278Z,14.77
2022-10-07T12:20:53.043Z,12.18
2022-10-07T12:23:20.396Z,12.80
2022-10-07T12:25:58.476Z,9.95
2022-10-07T12:28:48.791Z,10.73
2022-10-07T12:31:15.758Z,13.18
2022-10-07T12:33:45.781Z,13.18
2022-10-07T12:36:18.750Z,12.85
2022-10-07T12:39:08.012Z,14.18
2022-10-07T12:41:39.778Z,11.75
2022-10-07T12:44:21.292Z,13.88
2022-10-07T12:46:58.762Z,11.68
2022-10-07T12:49:47.801Z,10.82
2022-10-07T12:52:26.922Z,11.15
2022-10-07T12:55:01.224Z,7.78
2022-10-07T12:57:33.961Z,10.43
2022-10-07T13:00:07.852Z,12.77
2022-10-07T13:02:53.413Z,12.18
2022-10-07T13:05:38.337Z,12.15
2022-10-07T13:08:27.001Z,11.97
2022-10-07T13:11:16.419Z,10.25
2022-10-07T13:14:19.116Z,11.88
2022-10-07T13:17:07.594Z,8.15
2022-10-07T13:19:42.498Z,10.10
2022-10-07T13:22:09.486Z,10.05
2022-10-07T13:24:40.459Z,10.82
2022-10-07T13:27:09.462Z,9.48
2022-10-07T13:29:38.805Z,13.32
2022-10-07T13:32:10.190Z,11.98
2022-10-07T13:34:37.523Z,8.35
2022-10-07T13:37:37.695Z,15.98
2022-10-07T13:40:28.297Z,8.10
2022-10-07T13:42:59.118Z,9.38
2022-10-07T13:45:27.304Z,10.18
2022-10-07T13:47:55.247Z,8.30
2022-10-07T13:50:29.241Z,9.40
2022-10-07T13:52:57.367Z,12.77
2022-10-07T13:55:34.017Z,11.77
2022-10-07T13:58:04.296Z,5.47
2022-10-07T14:00:42.205Z,12.30
2022-10-07T14:03:14.027Z,6.32
2022-10-07T14:05:51.900Z,7.57
2022-10-07T14:08:24.326Z,13.75
2022-10-07T14:10:59.946Z,13.07
2022-10-07T14:13:29.008Z,8.65
2022-10-07T14:15:57.278Z,11.90
2022-10-07T14:18:25.139Z,9.95
2022-10-07T14:20:55.359Z,10.70
2022-10-07T14:23:32.864Z,12.65
2022-10-07T14:26:06.811Z,11.73
2022-10-07T14:28:35.952Z,14.77
2022-10-07T14:31:27.654Z,7.38
2022-10-07T14:34:26.604Z,8.43
2022-10-07T14:37:19.888Z,14.27
2022-10-07T14:39:48.883Z,7.18
2022-10-07T14:42:19.996Z,15.15
2022-10-07T14:44:47.478Z,9.60
2022-10-07T14:47:24.482Z,8.35
2022-10-07T14:49:52.780Z,9.82
2022-10-07T14:52:30.035Z,6.55
2022-10-07T14:55:07.572Z,8.65
2022-10-07T14:57:34.830Z,9.05
2022-10-07T15:00:01.724Z,11.57
2022-10-07T15:02:29.243Z,9.30
2022-10-07T15:04:56.381Z,6.72
2022-10-07T15:07:23.441Z,7.88
2022-10-07T15:09:50.233Z,9.15
2022-10-07T15:12:17.213Z,6.97
2022-10-07T15:14:44.215Z,12.73
2022-10-07T15:17:14.851Z,10.93
2022-10-07T15:19:41.868Z,9.45
2022-10-07T15:22:08.685Z,7.43
2022-10-07T15:24:35.934Z,7.53
2022-10-07T15:27:02.903Z,9.30
2022-10-07T15:29:29.791Z,9.52
2022-10-07T15:31:56.983Z,7.57
2022-10-07T15:34:24.164Z,7.60
2022-10-07T15:36:50.959Z,10.57
2022-10-07T15:39:17.848Z,6.40
2022-10-07T15:41:44.981Z,11.35
2022-10-07T15:44:18.975Z,11.73
2022-10-07T15:46:47.599Z,7.43
2022-10-07T15:49:16.892Z,9.80
2022-10-07T15:51:46.121Z,11.43
2022-10-07T15:54:13.454Z,9.40
2022-10-07T15:56:40.759Z,11.40
2022-10-07T15:59:07.606Z,12.52
2022-10-07T16:01:34.657Z,8.70
2022-10-07T16:04:03.165Z,9.43
2022-10-07T16:06:32.776Z,13.30
2022-10-07T16:09:00.616Z,7.32
2022-10-07T16:11:30.359Z,9.65
2022-10-07T16:13:59.695Z,11.95
2022-10-07T16:16:27.648Z,11.07
2022-10-07T16:18:57.783Z,9.05
2022-10-07T16:21:33.351Z,13.07
2022-10-07T16:24:08.928Z,13.85
2022-10-07T16:26:37.608Z,9.30
2022-10-07T16:29:31.555Z,9.65
2022-10-07T16:31:59.359Z,15.15
2022-10-07T16:34:28.065Z,12.95
2022-10-07T16:36:56.087Z,7.50
2022-10-07T16:39:23.473Z,13.68
2022-10-07T16:41:52.211Z,14.23
2022-10-07T16:44:20.153Z,9.23
2022-10-07T16:46:47.717Z,9.88
2022-10-07T16:49:17.228Z,15.65
2022-10-07T16:51:45.173Z,11.23
2022-10-07T16:54:15.918Z,10.35
2022-10-07T16:56:49.066Z,10.35
2022-10-07T16:59:23.272Z,10.10
2022-10-07T17:01:52.605Z,11.55
2022-10-07T17:04:19.672Z,11.32
2022-10-07T17:06:47.206Z,12.02
2022-10-07T17:09:14.456Z,8.18
2022-10-07T17:11:41.923Z,11.05
2022-10-07T17:14:18.371Z,12.60
2022-10-07T17:16:46.628Z,8.85
2022-10-07T17:19:17.549Z,9.98
2022-10-07T17:21:46.443Z,14.13
2022-10-07T17:24:13.504Z,11.27
2022-10-07T17:26:40.853Z,15.90
2022-10-07T17:29:09.962Z,13.40
2022-10-07T17:31:39.416Z,10.60
2022-10-07T17:34:07.452Z,10.52
2022-10-07T17:36:35.106Z,11.68
2022-10-07T17:39:02.426Z,6.85
2022-10-07T17:41:32.341Z,10.88
2022-10-07T17:44:01.288Z,13.30
2022-10-07T17:46:31.430Z,9.75
2022-10-07T17:49:00.323Z,10.80
2022-10-07T17:51:29.212Z,12.15
2022-10-07T17:53:57.898Z,20.83
2022-10-07T17:56:24.805Z,13.73
2022-10-07T17:58:51.783Z,14.05
2022-10-07T18:01:27.525Z,13.98
2022-10-07T18:04:00.028Z,10.77
2022-10-07T18:06:30.416Z,13.68
2022-10-07T18:08:59.139Z,9.30
2022-10-07T18:11:46.721Z,13.80
2022-10-07T18:14:32.577Z,16.15
2022-10-07T18:16:59.818Z,10.60
2022-10-07T18:19:27.363Z,15.10
2022-10-07T18:21:56.398Z,9.25
2022-10-07T18:24:29.326Z,16.17
2022-10-07T18:26:58.989Z,11.85
2022-10-07T18:29:31.427Z,13.82
2022-10-07T18:31:59.124Z,13.45
2022-10-07T18:34:26.072Z,13.38
2022-10-07T18:36:56.588Z,11.98
2022-10-07T18:39:25.003Z,14.23
2022-10-07T18:41:51.784Z,8.02
2022-10-07T18:44:18.717Z,8.48
2022-10-07T18:46:45.708Z,14.80
2022-10-07T18:49:15.409Z,15.75
2022-10-07T18:51:42.913Z,11.98
2022-10-07T18:54:10.496Z,10.85
2022-10-07T18:56:41.083Z,10.55
2022-10-07T18:59:10.014Z,14.10
2022-10-07T19:01:38.030Z,16.02
2022-10-07T19:04:06.312Z,12.00
2022-10-07T19:06:36.005Z,11.90
2022-10-07T19:09:06.693Z,16.65
2022-10-07T19:11:34.168Z,10.48
2022-10-07T19:14:01.516Z,19.15
2022-10-07T19:16:34.962Z,13.40
2022-10-07T19:19:02.980Z,17.95
2022-10-07T19:21:30.647Z,11.45
2022-10-07T19:24:04.532Z,10.15
2022-10-07T19:26:35.073Z,17.60
2022-10-07T19:29:03.307Z,14.50
2022-10-07T19:31:35.197Z,10.93
2022-10-07T19:34:05.105Z,16.73
2022-10-07T19:36:34.703Z,18.95
2022-10-07T19:39:02.588Z,14.57
2022-10-07T19:41:32.517Z,15.48
2022-10-07T19:43:59.918Z,11.13
2022-10-07T19:46:28.873Z,16.15
2022-10-07T19:48:58.168Z,17.13
2022-10-07T19:51:27.110Z,15.73
2022-10-07T19:53:57.206Z,13.00
2022-10-07T19:56:32.783Z,15.02
2022-10-07T20:01:31.901Z,15.20
2022-10-07T20:04:07.055Z,13.80
2022-10-07T20:06:36.454Z,14.68
2022-10-07T20:09:06.208Z,16.20
2022-10-07T20:11:33.874Z,13.77
2022-10-07T20:14:02.986Z,12.68
2022-10-07T20:16:31.102Z,14.88
2022-10-07T20:19:05.812Z,18.30
2022-10-07T20:21:35.645Z,15.88
2022-10-07T20:24:03.106Z,14.77
2022-10-07T20:26:35.909Z,17.33
2022-10-07T20:29:04.582Z,18.38
2022-10-07T20:31:34.901Z,18.08
2022-10-07T20:34:02.804Z,16.73
2022-10-07T20:36:35.543Z,20.13
2022-10-07T20:39:27.052Z,15.77
2022-10-07T20:42:13.037Z,15.68
2022-10-07T20:47:08.785Z,25.83
2022-10-07T20:49:37.450Z,14.73
2022-10-07T20:52:14.032Z,20.20
2022-10-07T20:54:40.877Z,12.57
2022-10-07T20:57:07.660Z,17.73
2022-10-07T20:59:34.582Z,15.75
2022-10-07T21:02:05.016Z,17.90
2022-10-07T21:04:34.168Z,19.30
2022-10-07T21:07:01.679Z,14.15
2022-10-07T21:09:28.695Z,20.05
2022-10-07T21:11:57.210Z,18.42
2022-10-07T21:14:24.115Z,20.48
2022-10-07T21:16:52.184Z,11.20
2022-10-07T21:19:19.152Z,14.55
2022-10-07T21:21:46.047Z,15.90
2022-10-07T21:24:12.938Z,16.63
2022-10-07T21:26:39.868Z,16.05
2022-10-07T21:29:09.466Z,19.48
2022-10-07T21:31:36.324Z,16.98
2022-10-07T21:34:10.680Z,14.73
2022-10-07T21:36:49.232Z,21.98
2022-10-07T21:39:18.665Z,23.90
2022-10-07T21:41:49.068Z,13.57
2022-10-07T21:44:16.127Z,19.67
2022-10-07T21:46:43.892Z,15.02
2022-10-07T21:49:11.359Z,19.40
2022-10-07T21:51:38.192Z,11.98
2022-10-07T21:54:05.625Z,16.33
2022-10-07T21:56:33.923Z,14.70
2022-10-07T21:59:01.597Z,12.13
2022-10-07T22:01:29.079Z,13.23
2022-10-07T22:03:57.823Z,21.88
2022-10-07T22:06:44.365Z,23.10
2022-10-07T22:09:12.538Z,20.80
2022-10-07T22:11:39.494Z,16.13
2022-10-07T22:14:11.361Z,18.00
2022-10-07T22:16:39.310Z,22.85
2022-10-07T22:19:06.533Z,17.30
2022-10-07T22:21:38.230Z,16.25
2022-10-07T22:24:07.214Z,23.40
2022-10-07T22:26:46.048Z,18.73
2022-10-07T22:29:15.025Z,15.05
2022-10-07T22:31:41.988Z,16.58
2022-10-07T22:34:08.911Z,16.73
2022-10-07T22:36:36.926Z,15.90
2022-10-07T22:39:04.411Z,22.45
2022-10-07T22:41:32.108Z,16.42
2022-10-07T22:43:59.666Z,22.00
2022-10-07T22:46:28.033Z,17.77
2022-10-07T22:48:58.559Z,18.48
2022-10-07T22:51:29.780Z,19.13
2022-10-07T22:53:57.022Z,12.98
2022-10-07T22:56:27.549Z,21.08
2022-10-07T22:58:59.766Z,17.80
2022-10-07T23:01:34.301Z,15.63
2022-10-07T23:04:03.419Z,17.03
2022-10-07T23:06:35.459Z,17.10
2022-10-07T23:09:03.472Z,17.35
2022-10-07T23:11:30.490Z,23.10
2022-10-07T23:13:57.390Z,23.58
2022-10-07T23:16:28.030Z,23.35
2022-10-07T23:18:54.955Z,20.95
2022-10-07T23:21:24.905Z,19.70
2022-10-07T23:23:54.103Z,19.88
2022-10-07T23:26:24.238Z,18.35
2022-10-07T23:28:52.162Z,23.08
2022-10-07T23:31:21.330Z,18.95
2022-10-07T23:33:51.864Z,21.30
2022-10-07T23:36:20.372Z,17.15
2022-10-07T23:38:48.688Z,12.55
2022-10-07T23:41:17.869Z,12.07
2022-10-07T23:43:44.663Z,15.43
2022-10-07T23:46:14.281Z,15.50
2022-10-07T23:48:42.231Z,13.63
2022-10-07T23:51:11.333Z,15.73
2022-10-07T23:53:38.738Z,17.88
2022-10-07T23:56:06.040Z,10.18
2022-10-07T23:58:34.027Z,18.88
